Clinton, Missouri
Current Conditions -  °F | °C
As of 8:55 AM on Monday 22 Dec 2014 (Local Time) from KGLY Reporting Station
Overcast Overcast  
Wind Chill: 40°   Ceiling: 1700
Heat Index: 45°   Visibility: 9mi
Dew Point: 41°   Wind: 8mph
Humidity: 87%   Direction: 140°SE
Pressure: 29.63"   Gusts: NA
Location:  38.37°N, 93.77°W
Report Text: KGLY 221455Z AUTO 14007KT 9SM OVC017 07/05 A2963 RMK AO2
Loading
Personal Weather Stations






























Interactive Weather Map New forecast layout! Learn more

10-Day Weather Forecast

Advertisements
Track Severe Weather on mobile